<?xml version="1.0" encoding="UTF-8"?><gpx version="1.1" creator="Simple Tracker for iOS)" xmlns:xsi="http://www.w3.org/2001/XMLSchema-instance" xmlns="http://www.topografix.com/GPX/1/1" xsi:schemaLocation="http://www.topografix.com/GPX/1/1 http://www.topografix.com/GPX/1/1/gpx.xsd" xmlns:gpxtpx="http://www.garmin.com/xmlschemas/TrackPointExtension/v1"><trk><name><![CDATA[Ny sporing - 30 Sep 2018 at 18:13]]></name><time>2018-09-30T16:13:32Z</time><trkseg><trkpt lat="59.69185268511967" lon="9.027302423500482"><ele>161.85567092895508</ele><time>2018-09-30T16:13:32Z</time></trkpt><trkpt lat="59.69183499930398" lon="9.027122799315515"><ele>196.13441848754883</ele><time>2018-09-30T16:13:40Z</time></trkpt><trkpt lat="59.691818445045215" lon="9.026945354425374"><ele>195.90102005004883</ele><time>2018-09-30T16:13:47Z</time></trkpt><trkpt lat="59.69182959297643" lon="9.026748044424714"><ele>195.07820510864258</ele><time>2018-09-30T16:13:54Z</time></trkpt><trkpt lat="59.69184618914471" lon="9.026571353905858"><ele>194.57450010541027</ele><time>2018-09-30T16:14:02Z</time></trkpt><trkpt lat="59.691924769486945" lon="9.026451073595346"><ele>193.81011863017238</ele><time>2018-09-30T16:14:14Z</time></trkpt><trkpt lat="59.69197912612901" lon="9.026294080548944"><ele>191.67845740234577</ele><time>2018-09-30T16:14:21Z</time></trkpt><trkpt lat="59.69204035593168" lon="9.02616047301239"><ele>190.71421378546057</ele><time>2018-09-30T16:15:05Z</time></trkpt><trkpt lat="59.69211453577475" lon="9.026039689787687"><ele>188.6118719802601</ele><time>2018-09-30T16:15:16Z</time></trkpt><trkpt lat="59.69214873393969" lon="9.02586341836399"><ele>188.68675236353704</ele><time>2018-09-30T16:15:24Z</time></trkpt><trkpt lat="59.69209974171565" lon="9.025701563813747"><ele>188.3378228065492</ele><time>2018-09-30T16:15:31Z</time></trkpt><trkpt lat="59.69205452134804" lon="9.025540295996727"><ele>188.24738319806366</ele><time>2018-09-30T16:15:38Z</time></trkpt><trkpt lat="59.69200745696173" lon="9.025386571892561"><ele>188.62950733781307</ele><time>2018-09-30T16:15:45Z</time></trkpt><trkpt lat="59.691966469455224" lon="9.025228573017777"><ele>188.74786345102007</ele><time>2018-09-30T16:15:52Z</time></trkpt><trkpt lat="59.691945514697295" lon="9.025053894155683"><ele>188.28475942181953</ele><time>2018-09-30T16:15:58Z</time></trkpt><trkpt lat="59.691937426160735" lon="9.024867145353019"><ele>189.04307725722398</ele><time>2018-09-30T16:16:05Z</time></trkpt><trkpt lat="59.69195791991399" lon="9.024663800382077"><ele>189.2055952697262</ele><time>2018-09-30T16:16:12Z</time></trkpt><trkpt lat="59.692011983189445" lon="9.02449440211898"><ele>189.6121150769122</ele><time>2018-09-30T16:16:19Z</time></trkpt><trkpt lat="59.69207149470196" lon="9.024352580317318"><ele>189.40949530830352</ele><time>2018-09-30T16:16:25Z</time></trkpt><trkpt lat="59.692130461390775" lon="9.024214614191115"><ele>190.05382643423383</ele><time>2018-09-30T16:16:31Z</time></trkpt><trkpt lat="59.69217702286289" lon="9.024058375515997"><ele>189.90707174040224</ele><time>2018-09-30T16:16:38Z</time></trkpt><trkpt lat="59.69221428042249" lon="9.02388503775841"><ele>189.87566679551762</ele><time>2018-09-30T16:16:45Z</time></trkpt><trkpt lat="59.692229912671905" lon="9.023688482129037"><ele>189.82340360968192</ele><time>2018-09-30T16:16:52Z</time></trkpt><trkpt lat="59.69224709557341" lon="9.023490082480967"><ele>191.61183943674192</ele><time>2018-09-30T16:17:01Z</time></trkpt><trkpt lat="59.69224223406957" lon="9.023299561821878"><ele>191.84040552624495</ele><time>2018-09-30T16:17:08Z</time></trkpt><trkpt lat="59.69224747275905" lon="9.02311348357147"><ele>191.2817752238886</ele><time>2018-09-30T16:17:15Z</time></trkpt><trkpt lat="59.69226851133601" lon="9.022927489140091"><ele>191.05299036148244</ele><time>2018-09-30T16:17:22Z</time></trkpt><trkpt lat="59.69229483051197" lon="9.022735459738431"><ele>190.73070904061075</ele><time>2018-09-30T16:17:29Z</time></trkpt><trkpt lat="59.69230614608125" lon="9.022538149737773"><ele>191.2720768177861</ele><time>2018-09-30T16:17:36Z</time></trkpt><trkpt lat="59.69233016023384" lon="9.022353580229936"><ele>190.83433162360674</ele><time>2018-09-30T16:17:43Z</time></trkpt><trkpt lat="59.69235459348158" lon="9.022179404282031"><ele>192.30666054518142</ele><time>2018-09-30T16:17:51Z</time></trkpt><trkpt lat="59.692388665917974" lon="9.02200439014381"><ele>193.28142176559115</ele><time>2018-09-30T16:17:59Z</time></trkpt><trkpt lat="59.69243204226689" lon="9.021827615805922"><ele>193.04723737357205</ele><time>2018-09-30T16:18:06Z</time></trkpt><trkpt lat="59.69246573751764" lon="9.021661067389903"><ele>192.5043124245783</ele><time>2018-09-30T16:18:13Z</time></trkpt><trkpt lat="59.69250685075269" lon="9.021471133464036"><ele>192.57669761627363</ele><time>2018-09-30T16:18:20Z</time></trkpt><trkpt lat="59.69254029454635" lon="9.021281786271391"><ele>192.98613542227227</ele><time>2018-09-30T16:18:27Z</time></trkpt><trkpt lat="59.69256011774735" lon="9.021099647515472"><ele>192.72265484799235</ele><time>2018-09-30T16:18:33Z</time></trkpt><trkpt lat="59.6925385762562" lon="9.020924549558218"><ele>193.68410276388624</ele><time>2018-09-30T16:18:40Z</time></trkpt><trkpt lat="59.69249901367323" lon="9.020754816018995"><ele>194.27189983512915</ele><time>2018-09-30T16:18:48Z</time></trkpt><trkpt lat="59.6924434416552" lon="9.020601846286114"><ele>194.50613320395172</ele><time>2018-09-30T16:18:55Z</time></trkpt><trkpt lat="59.692451907377404" lon="9.020405290656742"><ele>194.20214710988108</ele><time>2018-09-30T16:19:01Z</time></trkpt><trkpt lat="59.69244021462248" lon="9.020216530197319"><ele>195.17119742371432</ele><time>2018-09-30T16:19:08Z</time></trkpt><trkpt lat="59.692413350622815" lon="9.020044198268112"><ele>196.79416877838736</ele><time>2018-09-30T16:19:16Z</time></trkpt><trkpt lat="59.69238376250462" lon="9.01986038313156"><ele>197.04471526425016</ele><time>2018-09-30T16:19:23Z</time></trkpt><trkpt lat="59.69240107113467" lon="9.019657038160618"><ele>196.63317936056467</ele><time>2018-09-30T16:19:30Z</time></trkpt><trkpt lat="59.6924347244759" lon="9.019475234680828"><ele>195.68488541649356</ele><time>2018-09-30T16:19:36Z</time></trkpt><trkpt lat="59.692450775820475" lon="9.019278846689518"><ele>196.4939149213327</ele><time>2018-09-30T16:19:43Z</time></trkpt><trkpt lat="59.69243979552732" lon="9.019078016289527"><ele>196.61011892414092</ele><time>2018-09-30T16:19:51Z</time></trkpt><trkpt lat="59.69243040779577" lon="9.018872911118919"><ele>197.16640043673874</ele><time>2018-09-30T16:19:58Z</time></trkpt><trkpt lat="59.69241988850729" lon="9.018679624431783"><ele>197.0779674333237</ele><time>2018-09-30T16:20:06Z</time></trkpt><trkpt lat="59.6924339281951" lon="9.018484912821108"><ele>198.3031540700569</ele><time>2018-09-30T16:20:14Z</time></trkpt><trkpt lat="59.692446836325985" lon="9.018281484031135"><ele>198.83469947617482</ele><time>2018-09-30T16:20:21Z</time></trkpt><trkpt lat="59.692448764163714" lon="9.018076630317623"><ele>199.32739264311732</ele><time>2018-09-30T16:20:28Z</time></trkpt><trkpt lat="59.69245882244752" lon="9.017897592865879"><ele>199.19528968638826</ele><time>2018-09-30T16:20:34Z</time></trkpt><trkpt lat="59.69242139724986" lon="9.017730457716638"><ele>199.325250230125</ele><time>2018-09-30T16:20:40Z</time></trkpt><trkpt lat="59.69238543888525" lon="9.017563154929334"><ele>200.0442683188484</ele><time>2018-09-30T16:20:47Z</time></trkpt><trkpt lat="59.692347887959045" lon="9.017380094164068"><ele>201.55266414936887</ele><time>2018-09-30T16:20:55Z</time></trkpt><trkpt lat="59.69233632093267" lon="9.017192590990119"><ele>203.42152111687133</ele><time>2018-09-30T16:21:02Z</time></trkpt><trkpt lat="59.69227278610663" lon="9.017058061444216"><ele>203.72152668899778</ele><time>2018-09-30T16:21:09Z</time></trkpt><trkpt lat="59.69226436229394" lon="9.016863266014509"><ele>204.6589375161072</ele><time>2018-09-30T16:21:16Z</time></trkpt><trkpt lat="59.6922412701507" lon="9.016676936307006"><ele>204.4773862495402</ele><time>2018-09-30T16:21:23Z</time></trkpt><trkpt lat="59.692243156078916" lon="9.016495132827215"><ele>206.60357838051908</ele><time>2018-09-30T16:21:31Z</time></trkpt><trkpt lat="59.6921680542265" lon="9.016391700142078"><ele>211.3615626677822</ele><time>2018-09-30T16:22:01Z</time></trkpt><trkpt lat="59.6920800442432" lon="9.016451546930723"><ele>214.70251685134173</ele><time>2018-09-30T16:22:16Z</time></trkpt><trkpt lat="59.692011270727676" lon="9.016570234679632"><ele>219.31187873399108</ele><time>2018-09-30T16:22:35Z</time></trkpt><trkpt lat="59.691962194684606" lon="9.016727395364098"><ele>221.28080138580276</ele><time>2018-09-30T16:22:51Z</time></trkpt><trkpt lat="59.69190553301917" lon="9.016871312641554"><ele>222.26834850646412</ele><time>2018-09-30T16:23:00Z</time></trkpt><trkpt lat="59.69184204010264" lon="9.016997376465254"><ele>223.47882386600128</ele><time>2018-09-30T16:23:13Z</time></trkpt><trkpt lat="59.69181349972234" lon="9.017174486079268"><ele>223.9877311029765</ele><time>2018-09-30T16:23:20Z</time></trkpt><trkpt lat="59.69178994657443" lon="9.017351595693283"><ele>225.1368968271443</ele><time>2018-09-30T16:23:28Z</time></trkpt><trkpt lat="59.69172704039113" lon="9.017486544334346"><ele>226.77548783151082</ele><time>2018-09-30T16:23:38Z</time></trkpt><trkpt lat="59.69163144478546" lon="9.017543289818818"><ele>228.01962965815147</ele><time>2018-09-30T16:23:49Z</time></trkpt><trkpt lat="59.69153983058379" lon="9.017513198786432"><ele>229.5907529375104</ele><time>2018-09-30T16:23:58Z</time></trkpt><trkpt lat="59.69147725967662" lon="9.017379339792782"><ele>231.460077727311</ele><time>2018-09-30T16:24:11Z</time></trkpt><trkpt lat="59.6913968772252" lon="9.017476318412477"><ele>232.84817029052402</ele><time>2018-09-30T16:24:22Z</time></trkpt><trkpt lat="59.69131750060217" lon="9.01757715270763"><ele>234.32528677681415</ele><time>2018-09-30T16:24:36Z</time></trkpt><trkpt lat="59.691236489508015" lon="9.01769047603851"><ele>236.20557337634392</ele><time>2018-09-30T16:24:58Z</time></trkpt><trkpt lat="59.69115283811436" lon="9.017764488243515"><ele>237.0475106047934</ele><time>2018-09-30T16:25:08Z</time></trkpt><trkpt lat="59.69105493748532" lon="9.017748059713298"><ele>238.00595703251201</ele><time>2018-09-30T16:25:19Z</time></trkpt><trkpt lat="59.69098029663757" lon="9.017638508238846"><ele>239.58950429087804</ele><time>2018-09-30T16:25:29Z</time></trkpt><trkpt lat="59.690890191178475" lon="9.017629204326326"><ele>240.75546421991868</ele><time>2018-09-30T16:25:39Z</time></trkpt><trkpt lat="59.690791536178146" lon="9.017635490753705"><ele>242.22074093767043</ele><time>2018-09-30T16:25:51Z</time></trkpt><trkpt lat="59.690720415729736" lon="9.017526609831506"><ele>244.23042365877012</ele><time>2018-09-30T16:26:01Z</time></trkpt><trkpt lat="59.69063010072306" lon="9.017509259291941"><ele>245.1096483778677</ele><time>2018-09-30T16:26:10Z</time></trkpt><trkpt lat="59.690548335257624" lon="9.017433403068239"><ele>247.01707134373868</ele><time>2018-09-30T16:26:24Z</time></trkpt><trkpt lat="59.69049942685262" lon="9.017273811631851"><ele>249.1634554191532</ele><time>2018-09-30T16:26:45Z</time></trkpt><trkpt lat="59.690441675539766" lon="9.01713743806725"><ele>251.52611075727697</ele><time>2018-09-30T16:27:00Z</time></trkpt><trkpt lat="59.69036443630204" lon="9.01701279916709"><ele>252.93114333835894</ele><time>2018-09-30T16:27:12Z</time></trkpt><trkpt lat="59.69032780738518" lon="9.016849687331371"><ele>254.4834307705898</ele><time>2018-09-30T16:27:23Z</time></trkpt><trkpt lat="59.690265655573164" lon="9.016706692063265"><ele>256.20657202394267</ele><time>2018-09-30T16:27:35Z</time></trkpt><trkpt lat="59.690194618943785" lon="9.016582472258262"><ele>257.8344386869394</ele><time>2018-09-30T16:27:46Z</time></trkpt><trkpt lat="59.69011390121624" lon="9.016499910512023"><ele>258.83565461383654</ele><time>2018-09-30T16:27:56Z</time></trkpt><trkpt lat="59.690016461591874" lon="9.016519607984476"><ele>259.73479356545556</ele><time>2018-09-30T16:28:06Z</time></trkpt><trkpt lat="59.68991944106266" lon="9.016533270486645"><ele>260.77177334591806</ele><time>2018-09-30T16:28:16Z</time></trkpt><trkpt lat="59.689829084146474" lon="9.016471663498335"><ele>262.7539226248696</ele><time>2018-09-30T16:28:27Z</time></trkpt><trkpt lat="59.689746103305076" lon="9.016381306582145"><ele>264.1692166409888</ele><time>2018-09-30T16:28:37Z</time></trkpt><trkpt lat="59.68967007944331" lon="9.016269072898679"><ele>264.67220597324547</ele><time>2018-09-30T16:28:52Z</time></trkpt><trkpt lat="59.68959916854248" lon="9.016145775103025"><ele>264.11657223068505</ele><time>2018-09-30T16:29:04Z</time></trkpt><trkpt lat="59.68955130787537" lon="9.015981070705704"><ele>263.54266069120115</ele><time>2018-09-30T16:29:12Z</time></trkpt><trkpt lat="59.689519289005254" lon="9.015806140386514"><ele>262.80237877577395</ele><time>2018-09-30T16:29:18Z</time></trkpt><trkpt lat="59.68951208056853" lon="9.015612350785188"><ele>261.65816851438564</ele><time>2018-09-30T16:29:27Z</time></trkpt><trkpt lat="59.6894599451308" lon="9.015453513720088"><ele>262.34715385887677</ele><time>2018-09-30T16:29:34Z</time></trkpt><trkpt lat="59.68939641030476" lon="9.015327030801227"><ele>260.84598658146774</ele><time>2018-09-30T16:29:41Z</time></trkpt><trkpt lat="59.68934318521962" lon="9.015165260070017"><ele>261.5611264238879</ele><time>2018-09-30T16:29:49Z</time></trkpt><trkpt lat="59.68927734537021" lon="9.015036681675365"><ele>262.97442943366684</ele><time>2018-09-30T16:29:58Z</time></trkpt><trkpt lat="59.68922873033181" lon="9.014872396373203"><ele>263.38254717782206</ele><time>2018-09-30T16:30:10Z</time></trkpt><trkpt lat="59.689141097534154" lon="9.014946827673366"><ele>266.572342047949</ele><time>2018-09-30T16:30:24Z</time></trkpt><trkpt lat="59.68905635649309" lon="9.015027713038972"><ele>269.7051317667976</ele><time>2018-09-30T16:30:39Z</time></trkpt><trkpt lat="59.68896243726805" lon="9.015042381369522"><ele>270.7559910693269</ele><time>2018-09-30T16:30:50Z</time></trkpt><trkpt lat="59.688883898835336" lon="9.014951270082047"><ele>272.78216823012104</ele><time>2018-09-30T16:31:01Z</time></trkpt><trkpt lat="59.688812987934504" lon="9.014838952579549"><ele>273.88285200168997</ele><time>2018-09-30T16:31:20Z</time></trkpt><trkpt lat="59.68872665433184" lon="9.014784470208934"><ele>273.59329351684664</ele><time>2018-09-30T16:31:30Z</time></trkpt><trkpt lat="59.68865377368376" lon="9.014667626478722"><ele>273.4031526829309</ele><time>2018-09-30T16:31:38Z</time></trkpt><trkpt lat="59.688610020149206" lon="9.014511052527478"><ele>273.8260402555419</ele><time>2018-09-30T16:31:46Z</time></trkpt><trkpt lat="59.68853806151048" lon="9.014390101664713"><ele>274.104782521263</ele><time>2018-09-30T16:32:01Z</time></trkpt><trkpt lat="59.68847297603235" lon="9.014245262377909"><ele>274.4040120178332</ele><time>2018-09-30T16:32:13Z</time></trkpt><trkpt lat="59.68842762993619" lon="9.01406941004937"><ele>276.21006942003663</ele><time>2018-09-30T16:32:21Z</time></trkpt><trkpt lat="59.6883409610574" lon="9.013986764484098"><ele>275.0243798044468</ele><time>2018-09-30T16:32:30Z</time></trkpt><trkpt lat="59.688262799810325" lon="9.013898335405639"><ele>274.41772080524805</ele><time>2018-09-30T16:32:37Z</time></trkpt><trkpt lat="59.68817256862268" lon="9.013865059250048"><ele>273.8096330898431</ele><time>2018-09-30T16:32:46Z</time></trkpt><trkpt lat="59.68810140626476" lon="9.013981064789942"><ele>273.3848255855792</ele><time>2018-09-30T16:33:00Z</time></trkpt><trkpt lat="59.6880267235075" lon="9.014093047016313"><ele>274.36071084927886</ele><time>2018-09-30T16:33:08Z</time></trkpt><trkpt lat="59.68793946789548" lon="9.01418575086539"><ele>275.2651413349617</ele><time>2018-09-30T16:33:18Z</time></trkpt><trkpt lat="59.687855271678124" lon="9.014266133316806"><ele>277.7954782694539</ele><time>2018-09-30T16:33:32Z</time></trkpt><trkpt lat="59.687792030218695" lon="9.014402423062375"><ele>277.9958167671059</ele><time>2018-09-30T16:33:42Z</time></trkpt><trkpt lat="59.68770020646945" lon="9.01447551325803"><ele>278.3600953816446</ele><time>2018-09-30T16:33:51Z</time></trkpt><trkpt lat="59.68760553287313" lon="9.014443326749852"><ele>280.2789011821599</ele><time>2018-09-30T16:34:01Z</time></trkpt><trkpt lat="59.687533532324885" lon="9.014318268754533"><ele>280.0425345669697</ele><time>2018-09-30T16:34:10Z</time></trkpt><trkpt lat="59.687493047732566" lon="9.014153312900117"><ele>281.4589825908487</ele><time>2018-09-30T16:34:19Z</time></trkpt><trkpt lat="59.68745516153023" lon="9.013982405894449"><ele>281.06728524400734</ele><time>2018-09-30T16:34:28Z</time></trkpt><trkpt lat="59.68739124951855" lon="9.013840164997628"><ele>282.7464321019042</ele><time>2018-09-30T16:34:38Z</time></trkpt><trkpt lat="59.687309442143594" lon="9.013745868586948"><ele>284.6158672782925</ele><time>2018-09-30T16:34:49Z</time></trkpt><trkpt lat="59.68722943687782" lon="9.013665150859406"><ele>284.40412920190033</ele><time>2018-09-30T16:34:59Z</time></trkpt><trkpt lat="59.68713182961539" lon="9.013641681530526"><ele>282.0641553903401</ele><time>2018-09-30T16:35:11Z</time></trkpt><trkpt lat="59.687059829067145" lon="9.013507235803653"><ele>281.3306232442326</ele><time>2018-09-30T16:35:22Z</time></trkpt><trkpt lat="59.68696708330855" lon="9.0134582016701"><ele>281.18279702764323</ele><time>2018-09-30T16:35:29Z</time></trkpt><trkpt lat="59.68687961814896" lon="9.013393577196647"><ele>280.140515844795</ele><time>2018-09-30T16:35:35Z</time></trkpt><trkpt lat="59.68682438140706" lon="9.013247732081462"><ele>279.86511338877676</ele><time>2018-09-30T16:35:42Z</time></trkpt><trkpt lat="59.68675946356699" lon="9.013098366566945"><ele>280.58613351499514</ele><time>2018-09-30T16:35:50Z</time></trkpt><trkpt lat="59.68666981911257" lon="9.01314840652888"><ele>280.39458143987855</ele><time>2018-09-30T16:35:58Z</time></trkpt><trkpt lat="59.6865649615039" lon="9.013155866422702"><ele>279.1533597865769</ele><time>2018-09-30T16:36:06Z</time></trkpt><trkpt lat="59.686492248493884" lon="9.013030640789319"><ele>278.73476516707933</ele><time>2018-09-30T16:36:12Z</time></trkpt><trkpt lat="59.68644120270357" lon="9.012882029646088"><ele>278.4744981820424</ele><time>2018-09-30T16:36:19Z</time></trkpt><trkpt lat="59.686345439459835" lon="9.012839281939913"><ele>277.543024202564</ele><time>2018-09-30T16:36:26Z</time></trkpt><trkpt lat="59.686250723954" lon="9.012794019662786"><ele>277.143589611747</ele><time>2018-09-30T16:36:33Z</time></trkpt><trkpt lat="59.68615894211427" lon="9.012694275015045"><ele>277.84459717555336</ele><time>2018-09-30T16:36:41Z</time></trkpt><trkpt lat="59.68609649693564" lon="9.012562762954284"><ele>277.1787466317373</ele><time>2018-09-30T16:36:47Z</time></trkpt><trkpt lat="59.686027765329634" lon="9.012427311399032"><ele>277.3357087411798</ele><time>2018-09-30T16:36:53Z</time></trkpt><trkpt lat="59.68600647529558" lon="9.012235281997372"><ele>276.9114456735893</ele><time>2018-09-30T16:36:59Z</time></trkpt><trkpt lat="59.68594361102179" lon="9.01210812852626"><ele>276.2831002849851</ele><time>2018-09-30T16:37:06Z</time></trkpt><trkpt lat="59.68587563378707" lon="9.011961696677853"><ele>275.78564159506277</ele><time>2018-09-30T16:37:14Z</time></trkpt><trkpt lat="59.68582169624016" lon="9.011817192667175"><ele>274.369547969596</ele><time>2018-09-30T16:37:21Z</time></trkpt><trkpt lat="59.68573796102748" lon="9.011736726396729"><ele>272.8307482835428</ele><time>2018-09-30T16:37:31Z</time></trkpt><trkpt lat="59.68565263325319" lon="9.011631533511924"><ele>270.3661591151952</ele><time>2018-09-30T16:37:41Z</time></trkpt><trkpt lat="59.6856529266198" lon="9.011436486625122"><ele>267.9245793247784</ele><time>2018-09-30T16:37:49Z</time></trkpt><trkpt lat="59.68564110813633" lon="9.011248061441826"><ele>261.93404979410127</ele><time>2018-09-30T16:38:11Z</time></trkpt><trkpt lat="59.68556282116071" lon="9.011111687877225"><ele>261.6332797617109</ele><time>2018-09-30T16:38:22Z</time></trkpt><trkpt lat="59.68547116504953" lon="9.011025857188748"><ele>261.077683027861</ele><time>2018-09-30T16:38:28Z</time></trkpt><trkpt lat="59.685401679072235" lon="9.01090524160211"><ele>259.3547999909138</ele><time>2018-09-30T16:38:36Z</time></trkpt><trkpt lat="59.68531635129795" lon="9.010831816130327"><ele>258.5173118394996</ele><time>2018-09-30T16:38:43Z</time></trkpt><trkpt lat="59.68522268353001" lon="9.010890154176401"><ele>255.40725758855461</ele><time>2018-09-30T16:38:55Z</time></trkpt><trkpt lat="59.685139535050546" lon="9.010966513314294"><ele>253.88506363868913</ele><time>2018-09-30T16:39:16Z</time></trkpt><trkpt lat="59.685121849234854" lon="9.011143120014118"><ele>255.90419613494225</ele><time>2018-09-30T16:39:28Z</time></trkpt><trkpt lat="59.685080442633186" lon="9.01131084189658"><ele>256.89478133756046</ele><time>2018-09-30T16:39:39Z</time></trkpt><trkpt lat="59.6849969588776" lon="9.011422488846826"><ele>258.776440710733</ele><time>2018-09-30T16:39:46Z</time></trkpt><trkpt lat="59.684975836481605" lon="9.011600017555999"><ele>259.19785018284375</ele><time>2018-09-30T16:39:56Z</time></trkpt><trkpt lat="59.684901069905315" lon="9.011703450241138"><ele>258.8352486222969</ele><time>2018-09-30T16:40:39Z</time></trkpt><trkpt lat="59.684916157331024" lon="9.0118901990438"><ele>259.0863793124929</ele><time>2018-09-30T16:40:47Z</time></trkpt><trkpt lat="59.68492520978645" lon="9.012070577600051"><ele>259.6532999459213</ele><time>2018-09-30T16:40:55Z</time></trkpt><trkpt lat="59.684873158167754" lon="9.012224636980344"><ele>260.0359653671003</ele><time>2018-09-30T16:41:03Z</time></trkpt><trkpt lat="59.68484545597777" lon="9.012407781564642"><ele>257.41205912073656</ele><time>2018-09-30T16:41:13Z</time></trkpt><trkpt lat="59.68487236188695" lon="9.012586819016386"><ele>257.31155685361756</ele><time>2018-09-30T16:41:25Z</time></trkpt><trkpt lat="59.68488443182752" lon="9.012764263906528"><ele>256.9247084268495</ele><time>2018-09-30T16:41:32Z</time></trkpt><trkpt lat="59.68484931165323" lon="9.012950006880809"><ele>256.97352605604175</ele><time>2018-09-30T16:41:39Z</time></trkpt><trkpt lat="59.68483841517911" lon="9.013131726541568"><ele>256.30592887439593</ele><time>2018-09-30T16:41:47Z</time></trkpt><trkpt lat="59.68484545597777" lon="9.013316715144564"><ele>255.1662757893563</ele><time>2018-09-30T16:41:54Z</time></trkpt><trkpt lat="59.6848664107357" lon="9.013513857507158"><ele>255.6578275263489</ele><time>2018-09-30T16:42:02Z</time></trkpt><trkpt lat="59.684882252532695" lon="9.01369364933019"><ele>255.1537701755932</ele><time>2018-09-30T16:42:08Z</time></trkpt><trkpt lat="59.68485652008996" lon="9.013889785864404"><ele>254.14443373754875</ele><time>2018-09-30T16:42:16Z</time></trkpt><trkpt lat="59.68485031748161" lon="9.014077959590605"><ele>253.3598683958599</ele><time>2018-09-30T16:42:23Z</time></trkpt><trkpt lat="59.684852706324016" lon="9.014255488299778"><ele>252.82352055404658</ele><time>2018-09-30T16:42:30Z</time></trkpt><trkpt lat="59.68483816372201" lon="9.014436621227315"><ele>252.09643268548035</ele><time>2018-09-30T16:42:38Z</time></trkpt><trkpt lat="59.68487047595874" lon="9.014615574860027"><ele>250.81240478488985</ele><time>2018-09-30T16:42:46Z</time></trkpt><trkpt lat="59.68491628305957" lon="9.014779776343158"><ele>249.95775812953173</ele><time>2018-09-30T16:42:53Z</time></trkpt><trkpt lat="59.68493602244154" lon="9.014963172384551"><ele>251.044787772549</ele><time>2018-09-30T16:43:00Z</time></trkpt><trkpt lat="59.684933130684946" lon="9.015142880388549"><ele>251.43960778012274</ele><time>2018-09-30T16:43:07Z</time></trkpt><trkpt lat="59.68491682788328" lon="9.015345303350141"><ele>250.20038105290303</ele><time>2018-09-30T16:43:15Z</time></trkpt><trkpt lat="59.684916157331024" lon="9.01552492753511"><ele>248.88454165393068</ele><time>2018-09-30T16:43:22Z</time></trkpt><trkpt lat="59.68492479069129" lon="9.015718633317404"><ele>247.07850902099102</ele><time>2018-09-30T16:43:30Z</time></trkpt><trkpt lat="59.684932041037534" lon="9.015920637183838"><ele>245.98925890689014</ele><time>2018-09-30T16:43:37Z</time></trkpt><trkpt lat="59.68492856254772" lon="9.016109481462292"><ele>245.66888553556322</ele><time>2018-09-30T16:43:43Z</time></trkpt><trkpt lat="59.68494109349296" lon="9.01631215588098"><ele>245.2073841714839</ele><time>2018-09-30T16:43:50Z</time></trkpt><trkpt lat="59.684921102653895" lon="9.01651298628097"><ele>243.70096709358086</ele><time>2018-09-30T16:43:57Z</time></trkpt><trkpt lat="59.68494318896875" lon="9.016694035389476"><ele>242.35776585957188</ele><time>2018-09-30T16:44:05Z</time></trkpt><trkpt lat="59.684983422103976" lon="9.016856560491972"><ele>242.3648741771675</ele><time>2018-09-30T16:44:12Z</time></trkpt><trkpt lat="59.685060535613154" lon="9.016979942106657"><ele>239.52959420317507</ele><time>2018-09-30T16:44:21Z</time></trkpt><trkpt lat="59.68512813566223" lon="9.017100892969422"><ele>238.6061204438808</ele><time>2018-09-30T16:44:28Z</time></trkpt><trkpt lat="59.68519632244453" lon="9.017221257098965"><ele>237.62815813053817</ele><time>2018-09-30T16:44:34Z</time></trkpt><trkpt lat="59.68525373848126" lon="9.017386883505637"><ele>237.6049533677118</ele><time>2018-09-30T16:44:40Z</time></trkpt><trkpt lat="59.68531065160379" lon="9.01756198146289"><ele>236.5414497444608</ele><time>2018-09-30T16:44:47Z</time></trkpt><trkpt lat="59.685379215571736" lon="9.017704725273902"><ele>235.18170568206938</ele><time>2018-09-30T16:44:53Z</time></trkpt><trkpt lat="59.68543755361781" lon="9.017843529590422"><ele>233.74356191145364</ele><time>2018-09-30T16:45:00Z</time></trkpt><trkpt lat="59.68550997326121" lon="9.017956517645175"><ele>233.14629950627938</ele><time>2018-09-30T16:45:17Z</time></trkpt><trkpt lat="59.68554107012198" lon="9.01812826284116"><ele>232.32555614002575</ele><time>2018-09-30T16:45:28Z</time></trkpt><trkpt lat="59.68554488388792" lon="9.018317023300582"><ele>231.9143839406654</ele><time>2018-09-30T16:45:35Z</time></trkpt><trkpt lat="59.685561228599106" lon="9.018512656920606"><ele>230.60095683956388</ele><time>2018-09-30T16:45:42Z</time></trkpt><trkpt lat="59.685553349610124" lon="9.018695298590714"><ele>229.05349888619747</ele><time>2018-09-30T16:45:49Z</time></trkpt><trkpt lat="59.68557392718241" lon="9.018892860048467"><ele>228.32874978794644</ele><time>2018-09-30T16:45:55Z</time></trkpt><trkpt lat="59.685571664068554" lon="9.019093522810394"><ele>227.82524657866406</ele><time>2018-09-30T16:46:02Z</time></trkpt><trkpt lat="59.68558423692331" lon="9.01927155443376"><ele>227.13165113243446</ele><time>2018-09-30T16:46:08Z</time></trkpt><trkpt lat="59.685586541946684" lon="9.01947045699602"><ele>226.97482021190677</ele><time>2018-09-30T16:46:18Z</time></trkpt><trkpt lat="59.68554618308291" lon="9.019647231333908"><ele>227.55253617711168</ele><time>2018-09-30T16:46:25Z</time></trkpt><trkpt lat="59.685493754278575" lon="9.019794836648758"><ele>227.87394895726067</ele><time>2018-09-30T16:46:30Z</time></trkpt><trkpt lat="59.685443169492935" lon="9.019943363972958"><ele>227.7627072352663</ele><time>2018-09-30T16:46:36Z</time></trkpt><trkpt lat="59.685410899165724" lon="9.020109828569945"><ele>228.03317182957034</ele><time>2018-09-30T16:46:43Z</time></trkpt><trkpt lat="59.68539782339678" lon="9.0202986728484"><ele>228.14440445534024</ele><time>2018-09-30T16:46:49Z</time></trkpt><trkpt lat="59.68540620529995" lon="9.02048776858395"><ele>227.83336679793604</ele><time>2018-09-30T16:46:55Z</time></trkpt><trkpt lat="59.68542711814836" lon="9.020674265929516"><ele>227.1324567830398</ele><time>2018-09-30T16:47:01Z</time></trkpt><trkpt lat="59.685444468687926" lon="9.020863445484098"><ele>227.1104920652994</ele><time>2018-09-30T16:47:08Z</time></trkpt><trkpt lat="59.68549383809761" lon="9.021020270892437"><ele>226.53541558621043</ele><time>2018-09-30T16:47:16Z</time></trkpt><trkpt lat="59.685576818939005" lon="9.021094869830664"><ele>225.7331213655075</ele><time>2018-09-30T16:47:22Z</time></trkpt><trkpt lat="59.68565728520945" lon="9.021176761024652"><ele>225.12707682436655</ele><time>2018-09-30T16:47:27Z</time></trkpt><trkpt lat="59.685735656004105" lon="9.021274829291759"><ele>225.23431510388343</ele><time>2018-09-30T16:47:35Z</time></trkpt><trkpt lat="59.68581939121679" lon="9.021348506220637"><ele>225.44339131980342</ele><time>2018-09-30T16:47:43Z</time></trkpt><trkpt lat="59.685902497786735" lon="9.021416986369548"><ele>224.39663479511506</ele><time>2018-09-30T16:47:50Z</time></trkpt><trkpt lat="59.68599474063114" lon="9.021481862300096"><ele>224.0797318775293</ele><time>2018-09-30T16:47:56Z</time></trkpt><trkpt lat="59.68608224770025" lon="9.021550761544166"><ele>223.93082446881414</ele><time>2018-09-30T16:48:02Z</time></trkpt><trkpt lat="59.68618362681911" lon="9.021624857568202"><ele>223.44783838897115</ele><time>2018-09-30T16:48:08Z</time></trkpt><trkpt lat="59.68627964151994" lon="9.021704150372205"><ele>222.51818798832142</ele><time>2018-09-30T16:48:14Z</time></trkpt><trkpt lat="59.68637423129723" lon="9.0217199921692"><ele>220.46931677725797</ele><time>2018-09-30T16:48:20Z</time></trkpt><trkpt lat="59.6864603134428" lon="9.021640783184228"><ele>218.87803619273257</ele><time>2018-09-30T16:48:28Z</time></trkpt><trkpt lat="59.686542539912914" lon="9.021529806786237"><ele>217.49786488381062</ele><time>2018-09-30T16:48:35Z</time></trkpt><trkpt lat="59.68663545330957" lon="9.02147230693048"><ele>216.43716071550045</ele><time>2018-09-30T16:48:42Z</time></trkpt><trkpt lat="59.686706741396044" lon="9.021354708828984"><ele>216.31217535695197</ele><time>2018-09-30T16:48:48Z</time></trkpt><trkpt lat="59.68678163370088" lon="9.021254545086084"><ele>216.5220383085155</ele><time>2018-09-30T16:48:53Z</time></trkpt><trkpt lat="59.68686767393694" lon="9.021192854278741"><ele>216.0612598089583</ele><time>2018-09-30T16:49:01Z</time></trkpt><trkpt lat="59.68696134170488" lon="9.021202744924484"><ele>215.6913498732818</ele><time>2018-09-30T16:49:07Z</time></trkpt><trkpt lat="59.68705127952591" lon="9.021281786271391"><ele>215.4929921201437</ele><time>2018-09-30T16:49:12Z</time></trkpt><trkpt lat="59.687129231225406" lon="9.021374657758532"><ele>215.49417580632962</ele><time>2018-09-30T16:49:17Z</time></trkpt><trkpt lat="59.68720839830086" lon="9.021477922805605"><ele>215.43174187132297</ele><time>2018-09-30T16:49:22Z</time></trkpt><trkpt lat="59.68728840356663" lon="9.021572638311444"><ele>214.5784364910648</ele><time>2018-09-30T16:49:28Z</time></trkpt><trkpt lat="59.68737838329718" lon="9.02165067382997"><ele>213.92383193876265</ele><time>2018-09-30T16:49:35Z</time></trkpt><trkpt lat="59.687467860113536" lon="9.021763075151501"><ele>213.13936919596654</ele><time>2018-09-30T16:49:41Z</time></trkpt><trkpt lat="59.68755146959767" lon="9.021846642726121"><ele>212.19104221352816</ele><time>2018-09-30T16:49:47Z</time></trkpt><trkpt lat="59.68764010822371" lon="9.021944124260006"><ele>211.72018615648744</ele><time>2018-09-30T16:49:54Z</time></trkpt><trkpt lat="59.68769111210451" lon="9.022094998517094"><ele>211.2433624106137</ele><time>2018-09-30T16:49:59Z</time></trkpt><trkpt lat="59.687759759891485" lon="9.022213686266003"><ele>210.47902825725447</ele><time>2018-09-30T16:50:05Z</time></trkpt><trkpt lat="59.68784085480467" lon="9.02229859494513"><ele>209.41881062330805</ele><time>2018-09-30T16:50:12Z</time></trkpt><trkpt lat="59.68792169826076" lon="9.02239381336516"><ele>209.1272407151968</ele><time>2018-09-30T16:50:17Z</time></trkpt><trkpt lat="59.688004260007" lon="9.022484589376507"><ele>207.73342230112326</ele><time>2018-09-30T16:50:25Z</time></trkpt><trkpt lat="59.688095455113505" lon="9.022592296832261"><ele>207.16994378232027</ele><time>2018-09-30T16:50:31Z</time></trkpt><trkpt lat="59.68817893886909" lon="9.022699417554794"><ele>206.42398939702485</ele><time>2018-09-30T16:50:37Z</time></trkpt><trkpt lat="59.6882519033362" lon="9.0228199493224"><ele>206.36816618690347</ele><time>2018-09-30T16:50:42Z</time></trkpt><trkpt lat="59.68833375262067" lon="9.022932518281994"><ele>206.2603133658938</ele><time>2018-09-30T16:50:49Z</time></trkpt><trkpt lat="59.68843324581132" lon="9.02300854214376"><ele>205.5335998572259</ele><time>2018-09-30T16:50:55Z</time></trkpt><trkpt lat="59.68852884141699" lon="9.023076687016545"><ele>205.7924543048764</ele><time>2018-09-30T16:51:01Z</time></trkpt><trkpt lat="59.688613875824664" lon="9.023178191863954"><ele>205.40560509953633</ele><time>2018-09-30T16:51:08Z</time></trkpt><trkpt lat="59.68869752721832" lon="9.023264776923716"><ele>205.53744682262646</ele><time>2018-09-30T16:51:16Z</time></trkpt><trkpt lat="59.68878457328275" lon="9.02335831896311"><ele>205.14962665327158</ele><time>2018-09-30T16:51:23Z</time></trkpt><trkpt lat="59.68888544948742" lon="9.023423446350753"><ele>205.43218531991067</ele><time>2018-09-30T16:51:28Z</time></trkpt><trkpt lat="59.68898070981697" lon="9.023465272047579"><ele>205.3857793666686</ele><time>2018-09-30T16:51:34Z</time></trkpt><trkpt lat="59.68907773034618" lon="9.023533668377459"><ele>205.32490222144892</ele><time>2018-09-30T16:51:40Z</time></trkpt><trkpt lat="59.6891663270627" lon="9.023595107727706"><ele>205.0983435419999</ele><time>2018-09-30T16:51:45Z</time></trkpt><trkpt lat="59.68924788298056" lon="9.023689068862259"><ele>204.96411270979473</ele><time>2018-09-30T16:51:52Z</time></trkpt><trkpt lat="59.689339078087066" lon="9.02379074134773"><ele>204.61011080190698</ele><time>2018-09-30T16:51:58Z</time></trkpt><trkpt lat="59.68942855490342" lon="9.02387430892235"><ele>204.07386163729274</ele><time>2018-09-30T16:52:05Z</time></trkpt><trkpt lat="59.689514511320446" lon="9.02395737358278"><ele>203.94923979782982</ele><time>2018-09-30T16:52:12Z</time></trkpt><trkpt lat="59.68959933618054" lon="9.024054855116665"><ele>203.56124887275638</ele><time>2018-09-30T16:52:19Z</time></trkpt><trkpt lat="59.68968294566468" lon="9.024135656663239"><ele>203.3095341637307</ele><time>2018-09-30T16:52:27Z</time></trkpt><trkpt lat="59.68977766117052" lon="9.024163652219832"><ele>203.1989018247848</ele><time>2018-09-30T16:52:36Z</time></trkpt><trkpt lat="59.68986512633011" lon="9.024241939195454"><ele>202.51991003711566</ele><time>2018-09-30T16:52:45Z</time></trkpt><trkpt lat="59.689955650884365" lon="9.024319387980759"><ele>201.2722167675046</ele><time>2018-09-30T16:52:56Z</time></trkpt><trkpt lat="59.69003167474613" lon="9.024429945283591"><ele>201.33416829501172</ele><time>2018-09-30T16:53:03Z</time></trkpt><trkpt lat="59.69010644132242" lon="9.024529773750364"><ele>201.62659885230644</ele><time>2018-09-30T16:53:10Z</time></trkpt><trkpt lat="59.69019143382058" lon="9.02461803519076"><ele>201.4202743819542</ele><time>2018-09-30T16:53:16Z</time></trkpt><trkpt lat="59.690271397176836" lon="9.024704536431491"><ele>200.69961755651667</ele><time>2018-09-30T16:53:22Z</time></trkpt><trkpt lat="59.690362969468985" lon="9.024782991045177"><ele>200.0006289703128</ele><time>2018-09-30T16:53:29Z</time></trkpt><trkpt lat="59.69044972216681" lon="9.024871420123636"><ele>199.37261591356847</ele><time>2018-09-30T16:53:36Z</time></trkpt><trkpt lat="59.690531026627575" lon="9.02498105541712"><ele>198.40066530082242</ele><time>2018-09-30T16:53:42Z</time></trkpt><trkpt lat="59.690605499837254" lon="9.025083146997751"><ele>197.51692209586767</ele><time>2018-09-30T16:53:48Z</time></trkpt><trkpt lat="59.69068487646029" lon="9.025218682372035"><ele>196.23388799127696</ele><time>2018-09-30T16:53:55Z</time></trkpt><trkpt lat="59.69076861167297" lon="9.025335777559341"><ele>195.35983860505854</ele><time>2018-09-30T16:54:01Z</time></trkpt><trkpt lat="59.69085079623357" lon="9.025453794755997"><ele>193.948018830147</ele><time>2018-09-30T16:54:08Z</time></trkpt><trkpt lat="59.690933693255936" lon="9.025549516090216"><ele>193.21786566615452</ele><time>2018-09-30T16:54:14Z</time></trkpt><trkpt lat="59.69103117478983" lon="9.025632413112582"><ele>192.12520234793982</ele><time>2018-09-30T16:54:20Z</time></trkpt><trkpt lat="59.69112869823323" lon="9.02570122853762"><ele>191.16022991860387</ele><time>2018-09-30T16:54:26Z</time></trkpt><trkpt lat="59.69122437765793" lon="9.02576912195331"><ele>190.09503450382732</ele><time>2018-09-30T16:54:33Z</time></trkpt><trkpt lat="59.69131242955075" lon="9.02587029152459"><ele>189.74750741099965</ele><time>2018-09-30T16:54:40Z</time></trkpt><trkpt lat="59.69138296326594" lon="9.025986632340611"><ele>189.21466661187583</ele><time>2018-09-30T16:54:46Z</time></trkpt><trkpt lat="59.69146791385458" lon="9.026098363109888"><ele>189.19793425295242</ele><time>2018-09-30T16:54:52Z</time></trkpt><trkpt lat="59.691545865554076" lon="9.026190144949616"><ele>188.92262860547686</ele><time>2018-09-30T16:54:58Z</time></trkpt><trkpt lat="59.69162008730666" lon="9.026324339219393"><ele>189.10273731162476</ele><time>2018-09-30T16:55:05Z</time></trkpt><trkpt lat="59.691678928266924" lon="9.026480494075479"><ele>192.17594809966013</ele><time>2018-09-30T16:55:13Z</time></trkpt><trkpt lat="59.69176945282118" lon="9.026526175447763"><ele>195.4240489404735</ele><time>2018-09-30T16:55:25Z</time></trkpt><trkpt lat="59.69180956022785" lon="9.026689119645418"><ele>197.14469314773348</ele><time>2018-09-30T16:55:34Z</time></trkpt></trkseg></trk></gpx>